Аэропорт: Большое Савино. Пермь

ICAO: USPP

METAR:
2019/05/26 14:00
USPP 261400Z 21007MPS CAVOK 18/02 Q1013 R21/090060 NOSIG RMK QFE749
METAR:
2019/05/26 12:21
TAF USPP 261058Z 2612/2712 20004G10MPS CAVOK 
      TEMPO 2612/2615 21009G15MPS 
      BECMG 2700/2702 6000 -RA BKN020